Time;durP1;ratioP1;P1;durP2;ratioP2;P2;SDS_P1;SDS_P2;PMS_P1;PMS_P2;Temp;Humidity;BMP_temperature;BMP_pressure;BME280_temperature;BME280_humidity;BME280_pressure;Samples;Min_cycle;Max_cycle;Signal;HPM_P1;HPM_P2
2023/02/10 00:01:32;;;;;;;11.77;6.97;;;;;;;-6.87;64.55;101717.72;5060514;28;20073;-93
2023/02/10 00:03:58;;;;;;;10.10;5.73;;;;;;;-7.03;65.95;101709.19;5044026;28;20025;-93
2023/02/10 00:06:24;;;;;;;13.70;7.10;;;;;;;-7.23;65.49;101713.03;5044021;28;20024;-92
2023/02/10 00:08:51;;;;;;;11.70;6.13;;;;;;;-7.40;66.01;101719.31;5043809;28;20009;-93
2023/02/10 00:11:16;;;;;;;14.60;9.07;;;;;;;-7.43;66.04;101704.63;5044138;28;20040;-92
2023/02/10 00:13:42;;;;;;;16.83;7.97;;;;;;;-7.56;66.34;101701.09;5043890;28;20025;-93
2023/02/10 00:16:09;;;;;;;11.70;7.57;;;;;;;-7.67;65.91;101695.69;5044084;28;20097;-92
2023/02/10 00:18:34;;;;;;;10.37;7.23;;;;;;;-7.98;66.67;101697.50;5043962;28;20020;-94
2023/02/10 00:21:10;;;;;;;12.67;7.47;;;;;;;-7.84;65.88;101712.34;5043450;28;20110;-93
2023/02/10 00:23:36;;;;;;;10.67;7.13;;;;;;;-7.90;66.57;101704.91;5060239;28;20046;-92
2023/02/10 00:26:05;;;;;;;17.90;8.47;;;;;;;-8.13;67.25;101707.94;5043761;28;20048;-92
2023/02/10 00:28:32;;;;;;;24.13;7.77;;;;;;;-8.21;67.22;101710.16;5044379;28;20497;-92
2023/02/10 00:30:57;;;;;;;14.40;7.93;;;;;;;-8.25;66.71;101690.34;5043193;28;20020;-92
2023/02/10 00:33:22;;;;;;;7.73;6.43;;;;;;;-8.20;66.64;101701.38;5043238;28;20498;-92
2023/02/10 00:35:48;;;;;;;8.70;6.60;;;;;;;-8.18;67.17;101696.06;5043296;28;20020;-91
2023/02/10 00:38:13;;;;;;;18.30;7.77;;;;;;;-8.25;67.27;101686.91;5043735;28;20033;-92
2023/02/10 00:40:39;;;;;;;12.20;8.17;;;;;;;-8.33;67.72;101682.94;5043522;28;20193;-92
2023/02/10 00:43:04;;;;;;;13.40;7.80;;;;;;;-8.20;67.01;101687.47;5043768;28;20024;-92
2023/02/10 00:45:30;;;;;;;13.93;8.27;;;;;;;-8.12;67.21;101677.41;5044111;28;20016;-92
2023/02/10 00:47:55;;;;;;;11.80;6.67;;;;;;;-8.03;67.22;101686.47;5043504;28;20032;-92
2023/02/10 00:50:21;;;;;;;13.97;7.07;;;;;;;-7.96;66.50;101685.19;5042814;28;20367;-92
2023/02/10 00:52:46;;;;;;;15.70;9.00;;;;;;;-7.92;66.34;101673.63;5043319;28;20032;-93
2023/02/10 00:55:15;;;;;;;15.90;7.03;;;;;;;-7.78;66.73;101678.00;5043252;28;20198;-92
2023/02/10 00:57:40;;;;;;;9.83;6.57;;;;;;;-8.10;66.87;101669.47;5043642;28;20030;-93
2023/02/10 01:00:06;;;;;;;8.67;6.07;;;;;;;-8.06;66.07;101666.59;5043149;28;20486;-93
2023/02/10 01:02:32;;;;;;;11.53;8.13;;;;;;;-8.13;65.76;101657.44;5043501;28;20019;-93
2023/02/10 01:04:59;;;;;;;11.53;7.47;;;;;;;-8.26;66.25;101666.91;5042926;28;20028;-92
2023/02/10 01:07:24;;;;;;;8.00;6.50;;;;;;;-8.40;67.10;101667.75;5043780;28;20452;-92
2023/02/10 01:09:50;;;;;;;10.60;6.90;;;;;;;-8.40;66.17;101688.63;5042923;28;20024;-92
2023/02/10 01:12:15;;;;;;;11.57;6.93;;;;;;;-8.38;66.02;101674.56;5042306;28;20028;-92
2023/02/10 01:14:41;;;;;;;10.50;6.07;;;;;;;-8.49;66.07;101673.50;5042626;28;20486;-93
2023/02/10 01:17:06;;;;;;;12.80;7.33;;;;;;;-8.69;67.60;101657.22;5043212;28;20052;-93
2023/02/10 01:19:32;;;;;;;13.77;7.83;;;;;;;-8.72;67.05;101662.59;5042552;28;20551;-92
2023/02/10 01:21:57;;;;;;;16.53;7.20;;;;;;;-8.69;66.22;101661.59;5042428;28;20023;-93
2023/02/10 01:24:22;;;;;;;10.37;6.60;;;;;;;-8.84;66.30;101655.47;5042428;28;20028;-92
2023/02/10 01:26:48;;;;;;;11.63;6.70;;;;;;;-8.99;66.63;101658.00;5043149;28;20437;-91
2023/02/10 01:29:14;;;;;;;11.47;6.93;;;;;;;-8.99;67.36;101667.59;5043071;28;20043;-93
2023/02/10 01:31:39;;;;;;;11.10;8.07;;;;;;;-8.96;66.65;101672.69;5043276;28;20536;-92
2023/02/10 01:34:05;;;;;;;18.57;7.23;;;;;;;-8.95;67.21;101658.69;5042978;28;20023;-92
2023/02/10 01:36:30;;;;;;;11.47;5.70;;;;;;;-9.03;67.20;101660.88;5038553;28;20028;-92
2023/02/10 01:38:56;;;;;;;8.93;5.90;;;;;;;-9.03;67.52;101659.09;5023044;28;20036;-93
2023/02/10 01:41:22;;;;;;;11.53;6.40;;;;;;;-9.03;67.61;101679.13;5033430;28;20046;-92
2023/02/10 01:43:53;;;;;;;12.17;6.90;;;;;;;-8.85;66.83;101667.69;5058594;28;20028;-92
2023/02/10 01:46:19;;;;;;;11.77;7.53;;;;;;;-9.06;66.17;101648.84;5059428;28;20482;-92
2023/02/10 01:48:47;;;;;;;11.83;7.43;;;;;;;-9.01;66.98;101665.06;5042968;28;20032;-91
2023/02/10 01:51:12;;;;;;;13.23;6.77;;;;;;;-8.95;67.15;101663.91;5041944;28;20133;-92
2023/02/10 01:53:38;;;;;;;10.67;8.53;;;;;;;-8.89;66.17;101660.94;5043324;28;20028;-92
2023/02/10 01:56:03;;;;;;;11.97;8.33;;;;;;;-9.02;67.28;101652.97;5043687;28;20047;-91
2023/02/10 01:58:29;;;;;;;10.70;6.47;;;;;;;-9.05;67.97;101660.13;5043474;28;20025;-92
2023/02/10 02:00:55;;;;;;;9.63;6.37;;;;;;;-9.10;68.22;101649.94;5042529;28;20060;-92
2023/02/10 02:03:20;;;;;;;7.33;6.47;;;;;;;-9.18;67.99;101647.75;5006950;28;20017;-91
2023/02/10 02:05:46;;;;;;;10.10;7.47;;;;;;;-9.09;66.73;101661.22;5006342;28;20108;-92
2023/02/10 02:08:25;;;;;;;13.37;5.93;;;;;;;-9.25;68.37;101643.81;5005729;28;20051;-92
2023/02/10 02:11:15;;;;;;;8.63;5.80;;;;;;;-9.16;68.03;101650.28;5006020;28;20094;-92
2023/02/10 02:13:59;;;;;;;11.23;7.30;;;;;;;-9.19;67.32;101660.91;5039405;28;20028;-91
2023/02/10 02:16:43;;;;;;;7.93;5.37;;;;;;;-9.09;67.92;101656.00;5021756;28;20037;-92
2023/02/10 02:19:24;;;;;;;7.83;5.93;;;;;;;-9.11;65.60;101666.50;5038836;28;20406;-92
2023/02/10 02:22:17;;;;;;;5.97;4.60;;;;;;;-9.33;66.05;101663.41;5037991;28;20490;-92
2023/02/10 02:24:46;;;;;;;8.63;5.63;;;;;;;-9.37;67.26;101662.72;5038373;28;20049;-91
2023/02/10 02:27:53;;;;;;;8.43;6.27;;;;;;;-9.45;66.76;101659.69;5038070;28;20024;-92
2023/02/10 02:30:37;;;;;;;9.63;5.83;;;;;;;-9.32;67.46;101655.47;5016565;28;20036;-92
2023/02/10 02:33:32;;;;;;;7.47;4.33;;;;;;;-9.31;66.43;101649.34;5038798;28;20110;-92
2023/02/10 02:36:21;;;;;;;5.43;4.27;;;;;;;-9.59;66.92;101634.34;5022297;28;20112;-92
2023/02/10 02:38:47;;;;;;;6.67;5.23;;;;;;;-9.63;67.41;101620.66;5024698;28;20029;-93
2023/02/10 02:41:12;;;;;;;8.43;5.17;;;;;;;-9.55;66.98;101633.25;5022386;28;20024;-92
2023/02/10 02:43:38;;;;;;;10.17;6.07;;;;;;;-9.51;67.51;101623.50;5022183;28;20017;-93
2023/02/10 02:46:26;;;;;;;6.70;5.20;;;;;;;-9.47;67.07;101644.13;5006287;28;20105;-92
2023/02/10 02:49:13;;;;;;;7.43;5.10;;;;;;;-9.44;67.98;101638.75;5038324;28;20578;-92
2023/02/10 02:51:52;;;;;;;9.40;6.17;;;;;;;-9.50;67.71;101631.25;5022031;28;20029;-92
2023/02/10 02:54:25;;;;;;;13.67;7.23;;;;;;;-9.62;67.08;101630.16;5007221;28;20021;-92
2023/02/10 02:57:29;;;;;;;7.13;5.17;;;;;;;-9.53;67.12;101654.03;5006353;28;20091;-92
2023/02/10 03:00:05;;;;;;;6.50;4.97;;;;;;;-9.71;67.31;101635.00;5035412;28;20049;-92
2023/02/10 03:02:33;;;;;;;9.47;6.70;;;;;;;-9.57;66.74;101638.56;5006143;28;20009;-93
2023/02/10 03:04:59;;;;;;;6.77;4.97;;;;;;;-9.64;67.16;101639.81;5022221;28;20073;-92
2023/02/10 03:07:25;;;;;;;8.70;5.57;;;;;;;-9.89;67.93;101626.41;5020769;28;20048;-92
2023/02/10 03:09:51;;;;;;;12.23;7.77;;;;;;;-9.81;67.88;101632.06;5005309;28;20049;-91
2023/02/10 03:12:16;;;;;;;5.10;3.60;;;;;;;-9.69;67.26;101628.81;5038048;28;20085;-92
2023/02/10 03:14:42;;;;;;;4.70;3.63;;;;;;;-9.72;67.64;101615.91;5005219;28;20036;-91
2023/02/10 03:17:08;;;;;;;11.03;6.37;;;;;;;-9.84;67.13;101616.56;5005250;28;20012;-92
2023/02/10 03:19:33;;;;;;;6.73;4.50;;;;;;;-9.85;68.36;101613.13;5021963;28;20037;-93
2023/02/10 03:22:00;;;;;;;8.57;5.27;;;;;;;-9.85;67.71;101607.91;5008139;28;20017;-93
2023/02/10 03:24:30;;;;;;;11.57;6.07;;;;;;;-9.98;67.14;101612.06;5042831;28;20016;-92
2023/02/10 03:26:59;;;;;;;8.03;5.80;;;;;;;-9.79;67.84;101615.41;5027715;28;20021;-92
2023/02/10 03:29:25;;;;;;;10.10;4.90;;;;;;;-9.91;65.96;101595.22;5025669;28;20025;-91
2023/02/10 03:31:51;;;;;;;9.60;5.33;;;;;;;-9.85;67.08;101596.66;5025047;28;20033;-92
2023/02/10 03:34:17;;;;;;;10.03;5.07;;;;;;;-9.64;66.70;101597.28;5026701;28;20001;-93
2023/02/10 03:36:44;;;;;;;6.33;4.93;;;;;;;-9.54;65.79;101595.84;5026514;28;20599;-92
2023/02/10 03:39:10;;;;;;;5.57;4.67;;;;;;;-9.60;65.58;101581.38;5040939;28;20094;-92
2023/02/10 03:41:38;;;;;;;11.53;5.47;;;;;;;-9.65;66.22;101587.75;5023250;28;20064;-92
2023/02/10 03:44:06;;;;;;;7.27;5.57;;;;;;;-9.59;65.07;101590.03;5058016;28;20044;-93
2023/02/10 03:46:35;;;;;;;7.60;4.17;;;;;;;-9.76;66.26;101588.34;5025652;28;20032;-92
2023/02/10 03:49:01;;;;;;;10.50;5.70;;;;;;;-9.78;65.31;101588.41;5008814;28;20025;-91
2023/02/10 03:51:27;;;;;;;16.63;6.63;;;;;;;-9.77;65.98;101576.25;5024907;28;20025;-91
2023/02/10 03:53:53;;;;;;;8.70;6.70;;;;;;;-9.78;65.78;101572.78;5025194;28;20033;-91
2023/02/10 03:56:18;;;;;;;9.53;5.07;;;;;;;-9.77;66.61;101576.25;5025672;28;20012;-91
2023/02/10 03:58:44;;;;;;;6.93;4.33;;;;;;;-9.61;66.11;101571.00;5009038;28;20025;-91
2023/02/10 04:01:13;;;;;;;13.27;7.17;;;;;;;-9.44;65.72;101575.31;5008272;28;20029;-92
2023/02/10 04:03:38;;;;;;;9.27;5.97;;;;;;;-9.44;64.81;101576.16;5041699;28;20017;-90
2023/02/10 04:06:06;;;;;;;6.87;5.57;;;;;;;-9.39;64.79;101586.34;5007940;28;20479;-92
2023/02/10 04:08:31;;;;;;;5.63;4.63;;;;;;;-9.36;65.47;101583.53;5040752;28;20037;-92
2023/02/10 04:10:57;;;;;;;7.53;5.63;;;;;;;-9.41;64.98;101573.38;5024118;28;20024;-92
2023/02/10 04:13:23;;;;;;;7.03;5.43;;;;;;;-9.48;64.25;101579.00;5008133;28;20064;-92
2023/02/10 04:15:48;;;;;;;12.40;3.93;;;;;;;-9.67;65.29;101585.25;5040798;28;20028;-93
2023/02/10 04:18:14;;;;;;;10.07;6.97;;;;;;;-9.65;65.84;101577.31;5044588;28;20028;-93
2023/02/10 04:20:40;;;;;;;14.50;6.67;;;;;;;-9.67;65.07;101582.66;5042960;28;20165;-92
2023/02/10 04:23:07;;;;;;;9.97;6.03;;;;;;;-9.70;65.36;101593.22;5028320;28;20028;-94
2023/02/10 04:25:33;;;;;;;8.17;6.00;;;;;;;-9.91;64.63;101587.41;5030411;28;20045;-93
2023/02/10 04:28:00;;;;;;;8.97;6.43;;;;;;;-9.92;64.72;101582.25;5045202;28;20059;-94
2023/02/10 04:30:26;;;;;;;6.33;4.20;;;;;;;-10.03;65.21;101590.66;5044433;28;20028;-93
2023/02/10 04:32:53;;;;;;;9.23;6.03;;;;;;;-10.10;65.03;101566.69;5044327;28;20052;-92
2023/02/10 04:35:20;;;;;;;6.37;5.33;;;;;;;-10.05;65.77;101582.91;5044631;28;20490;-93
2023/02/10 04:37:48;;;;;;;10.80;6.10;;;;;;;-10.17;65.52;101575.72;5064841;28;20024;-93
2023/02/10 04:40:16;;;;;;;10.30;7.47;;;;;;;-10.25;65.21;101581.34;5043267;28;20031;-92
2023/02/10 04:42:41;;;;;;;11.47;6.70;;;;;;;-10.22;65.48;101581.19;5059875;28;20066;-93
2023/02/10 04:45:08;;;;;;;10.67;7.57;;;;;;;-10.21;66.41;101561.19;5061691;28;20470;-93
2023/02/10 04:47:35;;;;;;;14.03;8.53;;;;;;;-10.21;65.17;101569.84;5043645;28;20052;-93
2023/02/10 04:50:01;;;;;;;9.23;5.23;;;;;;;-10.09;65.58;101576.16;5043156;28;20549;-93
2023/02/10 04:52:27;;;;;;;5.83;3.93;;;;;;;-10.14;65.47;101548.69;5023096;28;20016;-93
2023/02/10 04:54:52;;;;;;;6.13;4.80;;;;;;;-10.03;65.54;101554.16;5008778;28;20020;-92
2023/02/10 04:57:18;;;;;;;8.30;5.80;;;;;;;-10.08;64.73;101556.19;5024698;28;20036;-92
2023/02/10 04:59:43;;;;;;;11.30;6.93;;;;;;;-10.06;65.23;101573.41;5023812;28;20091;-93
2023/02/10 05:02:12;;;;;;;10.70;7.03;;;;;;;-9.97;64.63;101569.47;5023202;28;20037;-92
2023/02/10 05:04:38;;;;;;;7.13;5.37;;;;;;;-10.04;63.68;101555.06;5041263;28;20040;-93
2023/02/10 05:07:05;;;;;;;7.13;5.20;;;;;;;-10.09;64.69;101552.72;5016985;28;20033;-93
2023/02/10 05:09:33;;;;;;;9.67;6.27;;;;;;;-10.04;64.39;101557.69;4968472;28;20021;-92
2023/02/10 05:12:00;;;;;;;7.70;4.97;;;;;;;-10.13;64.40;101545.16;4968275;28;20528;-91
2023/02/10 05:14:26;;;;;;;6.07;4.80;;;;;;;-10.00;64.45;101559.22;4984467;28;20030;-94
2023/02/10 05:16:52;;;;;;;8.50;5.50;;;;;;;-9.78;64.85;101553.69;4995190;28;20037;-89
2023/02/10 05:19:19;;;;;;;8.03;4.93;;;;;;;-9.58;63.32;101566.47;5019082;28;20047;-92
2023/02/10 05:21:46;;;;;;;9.80;6.90;;;;;;;-9.54;63.16;101554.13;5020291;28;20044;-92
2023/02/10 05:24:12;;;;;;;14.87;5.83;;;;;;;-9.55;63.74;101575.91;5020660;28;20036;-95
2023/02/10 05:26:39;;;;;;;19.67;5.97;;;;;;;-9.41;62.82;101590.78;5025108;28;20110;-93
2023/02/10 05:29:06;;;;;;;6.37;3.57;;;;;;;-9.64;64.26;101572.03;5020026;28;20033;-94
2023/02/10 05:31:34;;;;;;;8.13;5.60;;;;;;;-9.74;63.51;101583.88;5019111;28;20066;-92
2023/02/10 05:34:01;;;;;;;22.50;8.87;;;;;;;-9.80;63.17;101586.81;5022865;28;20120;-94
2023/02/10 05:36:27;;;;;;;6.90;4.80;;;;;;;-9.45;62.40;101592.72;5031972;28;20032;-95
2023/02/10 05:41:37;;;;;;;5.90;4.07;;;;;;;-9.57;62.06;101588.19;5052046;28;20397;-91
2023/02/10 05:44:52;;;;;;;5.67;4.60;;;;;;;-9.44;62.13;101568.34;5025717;28;20033;-95
2023/02/10 05:47:47;;;;;;;4.67;3.83;;;;;;;-9.70;62.79;101559.34;5035118;28;20116;-95
2023/02/10 05:50:19;;;;;;;4.37;3.90;;;;;;;-9.66;62.64;101560.00;5018714;28;20629;-95
2023/02/10 05:52:44;;;;;;;6.70;4.55;;;;;;;-9.36;61.29;101573.97;4999727;28;20030;-94
2023/02/10 05:55:10;;;;;;;8.50;4.83;;;;;;;-9.36;61.07;101544.41;5000596;28;20037;-95
2023/02/10 05:57:37;;;;;;;8.23;5.03;;;;;;;-9.03;61.53;101575.59;5016619;28;20120;-93
2023/02/10 06:00:06;;;;;;;5.63;4.43;;;;;;;-8.94;59.66;101592.53;5000988;28;20041;-93
2023/02/10 06:02:33;;;;;;;10.53;5.03;;;;;;;-8.91;59.50;101594.09;5019138;28;20044;-94
2023/02/10 06:04:59;;;;;;;6.20;5.57;;;;;;;-8.92;60.09;101579.34;5016145;28;20170;-92
2023/02/10 06:07:30;;;;;;;10.00;6.33;;;;;;;-8.82;58.75;101584.00;5000463;28;20026;-93
2023/02/10 06:09:56;;;;;;;10.43;5.85;;;;;;;-8.72;58.53;101586.88;5002825;28;20073;-93
2023/02/10 06:12:27;;;;;;;3.83;3.40;;;;;;;-8.56;58.34;101605.13;5015292;28;20158;-92
2023/02/10 06:14:55;;;;;;;5.50;4.43;;;;;;;-8.54;58.30;101606.72;5042549;28;20044;-92
2023/02/10 06:17:21;;;;;;;11.53;6.57;;;;;;;-8.78;59.12;101580.28;5026459;28;20398;-91
2023/02/10 06:19:50;;;;;;;10.40;4.83;;;;;;;-8.75;59.75;101600.97;5025659;28;20037;-89
2023/02/10 06:22:16;;;;;;;8.10;4.13;;;;;;;-8.82;59.06;101589.22;5042149;28;20040;-92
2023/02/10 06:24:45;;;;;;;6.60;5.43;;;;;;;-8.83;59.08;101590.13;5028583;28;20045;-92
2023/02/10 06:27:11;;;;;;;12.57;6.37;;;;;;;-8.84;59.72;101564.97;5009906;28;20037;-89
2023/02/10 06:30:04;;;;;;;14.77;8.20;;;;;;;-8.63;58.84;101593.34;5029160;28;20009;-92
2023/02/10 06:32:30;;;;;;;10.83;4.63;;;;;;;-8.80;59.95;101610.84;5052326;28;20025;-93
2023/02/10 06:35:01;;;;;;;9.27;5.63;;;;;;;-8.80;59.59;101591.72;5027525;28;20021;-91
2023/02/10 06:37:29;;;;;;;11.98;5.68;;;;;;;-8.49;58.95;101596.00;5039153;28;20024;-90
2023/02/10 06:39:56;;;;;;;6.63;4.57;;;;;;;-8.45;60.12;101615.78;5046913;28;20039;-93
2023/02/10 06:45:55;;;;;;;11.57;7.23;;;;;;;-8.63;60.30;101603.78;5023732;28;20041;-93
2023/02/10 06:48:20;;;;;;;9.13;4.50;;;;;;;-8.64;59.82;101623.84;5049112;28;20033;-94
2023/02/10 06:50:51;;;;;;;14.00;5.00;;;;;;;-8.54;59.70;101616.31;5034923;28;20017;-95
2023/02/10 06:53:42;;;;;;;13.70;6.87;;;;;;;-8.33;59.03;101609.78;5065791;28;20040;-92
2023/02/10 06:56:09;;;;;;;19.00;7.45;;;;;;;-8.19;58.11;101585.47;5051797;28;20033;-95
2023/02/10 07:01:47;;;;;;;7.23;6.17;;;;;;;-7.84;59.30;101611.25;5060332;28;20037;-95
2023/02/10 07:04:35;;;;;;;12.33;6.37;;;;;;;-7.41;57.82;101626.88;5037499;28;20039;-94
2023/02/10 07:07:01;;;;;;;16.93;8.80;;;;;;;-7.27;57.75;101631.25;5009180;28;20037;-92
2023/02/10 07:09:27;;;;;;;13.73;7.70;;;;;;;-7.37;57.19;101606.59;4976196;28;20034;-91
2023/02/10 07:12:09;;;;;;;12.47;6.83;;;;;;;-7.00;57.34;101635.66;5006815;28;20511;-95
2023/02/10 07:14:34;;;;;;;10.43;5.93;;;;;;;-6.97;56.17;101604.03;5008316;28;20559;-92
2023/02/10 07:17:03;;;;;;;11.53;7.37;;;;;;;-6.76;55.49;101621.00;4989565;28;20049;-92
2023/02/10 07:19:30;;;;;;;8.33;6.30;;;;;;;-6.76;55.71;101622.78;4990476;28;20033;-93
2023/02/10 07:21:56;;;;;;;13.20;8.57;;;;;;;-6.87;55.99;101623.44;5008035;28;20033;-93
2023/02/10 07:24:24;;;;;;;19.33;9.93;;;;;;;-7.01;56.06;101624.38;5022102;28;20034;-94
2023/02/10 07:26:55;;;;;;;26.37;11.27;;;;;;;-7.06;57.09;101623.81;5022916;28;20192;-94
2023/02/10 07:29:21;;;;;;;26.07;15.33;;;;;;;-7.19;57.66;101633.38;4996032;28;20097;-94
2023/02/10 07:31:47;;;;;;;18.63;11.53;;;;;;;-7.30;57.95;101615.75;5021906;28;20036;-95
2023/02/10 07:34:20;;;;;;;19.50;10.07;;;;;;;-6.88;57.09;101640.13;5009314;28;20029;-95
2023/02/10 07:36:53;;;;;;;34.50;13.10;;;;;;;-6.89;56.82;101622.72;5008484;28;20037;-91
2023/02/10 07:39:20;;;;;;;21.40;11.40;;;;;;;-6.81;58.25;101624.84;5070739;28;20032;-93
2023/02/10 07:41:45;;;;;;;17.70;10.73;;;;;;;-6.87;56.66;101597.25;5049583;28;20108;-91
2023/02/10 07:44:11;;;;;;;26.30;14.67;;;;;;;-7.05;59.62;101615.03;5049838;28;20016;-94
2023/02/10 07:46:38;;;;;;;19.00;11.03;;;;;;;-6.78;59.08;101650.84;5050261;28;20466;-94
2023/02/10 07:49:06;;;;;;;21.80;12.23;;;;;;;-6.83;58.67;101638.03;5069266;28;20025;-93
2023/02/10 07:51:35;;;;;;;23.47;11.87;;;;;;;-6.78;58.19;101615.00;5063113;28;20505;-91
2023/02/10 07:54:06;;;;;;;20.50;12.13;;;;;;;-6.48;58.32;101639.28;5050253;28;20024;-93
2023/02/10 07:56:35;;;;;;;25.60;12.47;;;;;;;-6.64;58.86;101611.50;5051295;28;20045;-95
2023/02/10 07:59:21;;;;;;;36.07;12.83;;;;;;;-6.48;58.32;101640.13;5049643;28;20050;-95
2023/02/10 08:01:47;;;;;;;24.93;12.30;;;;;;;-6.48;59.34;101621.78;5052722;28;20036;-95
2023/02/10 08:04:14;;;;;;;25.57;12.17;;;;;;;-6.38;59.58;101628.09;5070367;28;20020;-95
2023/02/10 08:06:51;;;;;;;24.27;13.23;;;;;;;-6.16;59.27;101621.41;5057910;28;20056;-94
2023/02/10 08:09:19;;;;;;;19.97;11.97;;;;;;;-6.15;57.84;101599.47;5048538;28;20033;-92
2023/02/10 08:11:47;;;;;;;24.70;11.17;;;;;;;-5.94;57.99;101590.09;5051913;28;20092;-94
2023/02/10 08:14:48;;;;;;;26.90;15.03;;;;;;;-5.79;57.38;101630.19;5070268;28;20025;-91
2023/02/10 08:17:16;;;;;;;19.40;12.27;;;;;;;-5.58;58.05;101600.75;5002527;28;20041;-88
2023/02/10 08:19:42;;;;;;;27.67;14.83;;;;;;;-5.54;57.59;101594.31;5002926;28;20488;-88
2023/02/10 08:22:13;;;;;;;28.37;15.00;;;;;;;-5.36;57.97;101610.56;5020105;28;20030;-90
2023/02/10 08:24:43;;;;;;;33.10;16.83;;;;;;;-5.36;57.75;101574.63;5002590;28;20889;-88
2023/02/10 08:27:11;;;;;;;28.17;14.83;;;;;;;-5.14;57.10;101607.25;5018264;28;20035;-88
2023/02/10 08:36:30;;;;;;;28.27;14.53;;;;;;;-4.97;57.08;101592.88;4948849;28;20049;-87
2023/02/10 08:39:00;;;;;;;26.60;14.23;;;;;;;-4.70;54.91;101600.50;5062763;28;20039;-88
2023/02/10 08:41:42;;;;;;;28.00;14.77;;;;;;;-4.63;54.70;101564.91;5072380;28;20460;-93
2023/02/10 08:44:18;;;;;;;24.85;15.32;;;;;;;-4.30;54.81;101608.03;5063250;28;20051;-91
2023/02/10 08:46:45;;;;;;;27.73;14.17;;;;;;;-4.14;54.93;101605.91;5036236;28;20037;-92
2023/02/10 08:49:11;;;;;;;22.87;12.67;;;;;;;-4.06;54.72;101582.47;5032316;28;20035;-92
2023/02/10 08:51:38;;;;;;;20.97;14.10;;;;;;;-4.09;54.18;101577.47;5029123;28;20029;-90
2023/02/10 08:54:04;;;;;;;31.60;15.90;;;;;;;-3.74;53.72;101602.81;5052206;28;20116;-90
2023/02/10 08:56:31;;;;;;;26.87;16.80;;;;;;;-3.95;53.32;101565.03;5038004;28;20116;-90
2023/02/10 08:58:56;;;;;;;30.90;19.05;;;;;;;-3.87;54.24;101562.63;5036385;28;20024;-89
2023/02/10 09:01:25;;;;;;;28.15;16.77;;;;;;;-3.80;55.00;101579.59;5028249;28;20032;-91
2023/02/10 09:03:54;;;;;;;29.80;14.02;;;;;;;-3.57;54.14;101579.59;5056210;28;20572;-91
2023/02/10 09:06:43;;;;;;;38.67;24.73;;;;;;;-3.45;54.39;101574.19;5056587;28;20008;-89
2023/02/10 09:09:22;;;;;;;26.88;14.95;;;;;;;-3.36;53.13;101570.00;5050589;28;20024;-88
2023/02/10 09:11:48;;;;;;;24.48;13.20;;;;;;;-3.26;52.52;101584.09;5028253;28;20028;-88
2023/02/10 09:14:14;;;;;;;26.08;13.25;;;;;;;-3.03;52.82;101588.44;5051590;28;20021;-89
2023/02/10 09:16:41;;;;;;;21.13;12.45;;;;;;;-3.09;53.13;101574.81;5064957;28;20040;-88
2023/02/10 09:19:09;;;;;;;21.65;11.63;;;;;;;-2.97;52.31;101572.97;5056329;28;20501;-88
2023/02/10 09:21:35;;;;;;;22.25;11.98;;;;;;;-2.83;52.58;101589.47;5060238;28;20413;-86
2023/02/10 09:24:01;;;;;;;31.02;14.43;;;;;;;-2.79;52.61;101583.81;5050071;28;20032;-89
2023/02/10 09:26:27;;;;;;;23.70;12.07;;;;;;;-2.68;53.12;101589.06;5047842;28;20081;-88
2023/02/10 09:28:53;;;;;;;21.80;10.98;;;;;;;-2.70;53.17;101585.69;5024153;28;20048;-85
2023/02/10 09:31:22;;;;;;;24.83;11.05;;;;;;;-2.53;52.12;101568.47;5006126;28;20108;-91
2023/02/10 09:33:49;;;;;;;21.63;9.52;;;;;;;-2.46;52.92;101559.06;5038772;28;20112;-87
2023/02/10 09:36:17;;;;;;;12.02;7.00;;;;;;;-2.35;53.29;101567.88;5025037;28;20037;-86
2023/02/10 09:38:42;;;;;;;19.15;8.50;;;;;;;-2.14;51.36;101573.13;5038480;28;20025;-87
2023/02/10 09:41:17;;;;;;;13.45;7.72;;;;;;;-1.96;52.20;101560.16;5031631;28;20005;-88
2023/02/10 09:44:07;;;;;;;20.45;8.10;;;;;;;-1.80;52.06;101546.47;5045677;28;20383;-93
2023/02/10 09:47:03;;;;;;;20.55;9.38;;;;;;;-1.74;51.22;101546.78;5080946;28;20033;-91
2023/02/10 09:49:47;;;;;;;19.90;12.30;;;;;;;-1.66;50.41;101536.38;5084748;28;20040;-91
2023/02/10 09:52:15;;;;;;;19.10;10.32;;;;;;;-1.49;49.01;101556.00;5061947;28;20111;-91
2023/02/10 09:55:00;;;;;;;27.20;12.23;;;;;;;-1.58;50.48;101509.25;5081125;28;20088;-90
2023/02/10 09:57:48;;;;;;;27.48;13.77;;;;;;;-1.51;48.60;101513.03;5067677;28;20035;-91
2023/02/10 10:00:35;;;;;;;22.27;11.73;;;;;;;-1.30;49.13;101522.66;5046802;28;20104;-88
2023/02/10 10:03:26;;;;;;;24.70;13.02;;;;;;;-1.24;48.91;101499.16;5064572;28;20490;-90
2023/02/10 10:06:21;;;;;;;25.38;14.13;;;;;;;-0.89;50.18;101526.03;5049246;28;20020;-90
2023/02/10 10:09:07;;;;;;;24.25;12.10;;;;;;;-1.17;49.80;101503.91;5036166;28;20025;-92
2023/02/10 10:11:53;;;;;;;23.08;12.95;;;;;;;-1.06;50.42;101524.88;5052753;28;20037;-95
2023/02/10 10:14:20;;;;;;;30.92;15.07;;;;;;;-0.86;49.41;101491.34;5010739;28;20067;-93
2023/02/10 10:17:03;;;;;;;29.00;15.27;;;;;;;-0.69;46.50;101506.47;5025153;28;20076;-92
2023/02/10 10:19:44;;;;;;;18.20;8.98;;;;;;;-0.67;44.33;101515.13;5040751;28;20017;-93
2023/02/10 10:22:54;;;;;;;20.60;8.73;;;;;;;-0.68;45.81;101507.34;5059524;28;20009;-89
2023/02/10 10:25:44;;;;;;;17.63;8.75;;;;;;;-0.56;46.02;101508.84;5037168;28;20120;-88
2023/02/10 10:28:15;;;;;;;11.68;6.03;;;;;;;-0.45;44.01;101508.66;5059431;28;20029;-87
2023/02/10 10:31:19;;;;;;;13.55;5.70;;;;;;;-0.41;43.53;101483.59;5049409;28;20127;-88
2023/02/10 10:34:17;;;;;;;9.50;5.22;;;;;;;-0.33;41.97;101500.53;5039572;28;20029;-91
2023/02/10 10:36:47;;;;;;;12.00;5.38;;;;;;;-0.52;42.35;101475.84;5023518;28;20029;-89
2023/02/10 10:39:39;;;;;;;12.15;6.40;;;;;;;-0.27;42.66;101487.59;5035683;28;20033;-90
2023/02/10 10:42:17;;;;;;;12.13;6.15;;;;;;;-0.25;42.73;101482.13;5024452;28;20108;-86
2023/02/10 10:44:48;;;;;;;12.70;5.68;;;;;;;-0.24;43.69;101478.50;5056621;28;20040;-87
2023/02/10 10:48:09;;;;;;;13.93;7.95;;;;;;;-0.40;44.54;101444.72;5044813;28;20435;-96
2023/02/10 10:50:35;;;;;;;13.52;8.13;;;;;;;-0.21;45.51;101463.19;5049455;28;20025;-91
2023/02/10 10:53:14;;;;;;;17.58;7.50;;;;;;;-0.30;44.12;101439.41;5027667;28;20025;-93
2023/02/10 10:55:42;;;;;;;13.25;7.88;;;;;;;-0.21;44.77;101435.84;5041782;28;20045;-96
2023/02/10 10:58:28;;;;;;;14.05;7.63;;;;;;;0.08;45.44;101482.53;5030451;28;20021;-94
2023/02/10 11:00:57;;;;;;;17.50;8.25;;;;;;;-0.04;45.58;101453.63;5028720;28;20033;-94
2023/02/10 11:03:23;;;;;;;15.45;7.95;;;;;;;0.01;45.33;101429.34;5046721;28;20025;-94
2023/02/10 11:06:21;;;;;;;18.98;8.05;;;;;;;0.17;46.94;101458.66;5048877;28;20033;-95
2023/02/10 11:09:03;;;;;;;14.60;7.65;;;;;;;-0.16;46.83;101427.50;5045558;28;20056;-96
2023/02/10 11:12:03;;;;;;;20.17;7.25;;;;;;;0.37;45.17;101466.47;5046938;28;20028;-91
2023/02/10 11:14:29;;;;;;;16.30;8.52;;;;;;;0.17;44.48;101423.41;5054044;28;20079;-93
2023/02/10 11:17:37;;;;;;;19.30;8.25;;;;;;;0.46;44.80;101455.00;5010785;28;20463;-89
2023/02/10 11:20:11;;;;;;;17.42;10.32;;;;;;;0.56;44.30;101453.09;5054779;28;20052;-89
2023/02/10 11:22:37;;;;;;;15.35;7.28;;;;;;;0.23;42.44;101414.00;5051466;28;20033;-88
2023/02/10 11:25:29;;;;;;;21.65;9.20;;;;;;;0.50;43.90;101437.81;5019401;28;20060;-88
2023/02/10 11:27:54;;;;;;;11.57;6.97;;;;;;;0.39;41.77;101409.72;5002812;28;20450;-89
2023/02/10 11:30:40;;;;;;;13.32;6.35;;;;;;;0.60;42.11;101422.66;5037541;28;20044;-89
2023/02/10 11:33:16;;;;;;;12.60;6.68;;;;;;;0.61;41.97;101404.91;5007791;28;20056;-89
2023/02/10 11:35:53;;;;;;;13.02;6.75;;;;;;;0.64;40.54;101388.69;5019921;28;20040;-89
2023/02/10 11:38:21;;;;;;;13.50;7.35;;;;;;;0.46;40.34;101372.84;5019657;28;20049;-90
2023/02/10 11:40:58;;;;;;;14.38;5.90;;;;;;;0.62;40.48;101381.88;5021410;28;20040;-89
2023/02/10 11:43:45;;;;;;;9.55;5.72;;;;;;;0.73;39.48;101398.41;5026180;28;20482;-89
2023/02/10 11:46:26;;;;;;;13.07;4.68;;;;;;;0.73;38.79;101393.09;5026031;28;20105;-85
2023/02/10 11:48:56;;;;;;;7.78;4.95;;;;;;;0.73;39.36;101384.31;5030155;28;20037;-86
2023/02/10 11:51:22;;;;;;;10.18;5.70;;;;;;;0.83;38.73;101389.50;5023402;28;20503;-87
2023/02/10 11:53:47;;;;;;;11.13;5.78;;;;;;;0.88;38.68;101385.41;5021833;28;20032;-88